This is the latest recevied weather packets stored in our database for station/object SP1BMW-13. If no packets are shown the sender has not sent any weather packets the latest 10 day(s).
| Time | Temp. | Humidity | Pressure | Rain* | Wind** | Luminosity | Snow |
|---|---|---|---|---|---|---|---|
| 1787826076 | 25° C | 46% | 1019.8 hPa | 0 mm | 0.89 m/s, 34° | 604 W/m² | - |
| 1787826015 | 25° C | 44% | 1019.9 hPa | 0 mm | 1.34 m/s, 124° | 606 W/m² | - |
| 1787825956 | 24.44° C | 43% | 1019.9 hPa | 0 mm | 2.24 m/s, 88° | 606 W/m² | - |
| 1787825896 | 24.44° C | 45% | 1020.1 hPa | 0 mm | 0.45 m/s, 53° | 604 W/m² | - |
| 1787825835 | 24.44° C | 45% | 1019.8 hPa | 0 mm | 1.34 m/s, 192° | 602 W/m² | - |
| 1787825775 | 24.44° C | 45% | 1019.9 hPa | 0 mm | 0.89 m/s, 69° | 605 W/m² | - |
| 1787825716 | 24.44° C | 45% | 1019.9 hPa | 0 mm | 1.79 m/s, 61° | 603 W/m² | - |
| 1787825656 | 24.44° C | 46% | 1020 hPa | 0 mm | 0.89 m/s, 60° | 601 W/m² | - |
| 1787825595 | 24.44° C | 47% | 1019.9 hPa | 0 mm | 0.89 m/s, 53° | 596 W/m² | - |
| 1787825535 | 24.44° C | 44% | 1020 hPa | 0 mm | 3.13 m/s, 121° | 602 W/m² | - |
| 1787825476 | 24.44° C | 45% | 1019.9 hPa | 0 mm | 0.89 m/s, 29° | 602 W/m² | - |
| 1787825416 | 24.44° C | 46% | 1020 hPa | 0 mm | 0.89 m/s, 3° | 599 W/m² | - |
| 1787825356 | 24.44° C | 46% | 1020.1 hPa | 0 mm | 1.34 m/s, 27° | 599 W/m² | - |
| 1787825295 | 24.44° C | 44% | 1020 hPa | 0 mm | 2.24 m/s, 133° | 598 W/m² | - |
| 1787825235 | 24.44° C | 46% | 1020.2 hPa | 0 mm | 1.34 m/s, 72° | 596 W/m² | - |
| 1787825176 | 23.89° C | 46% | 1020 hPa | 0 mm | 2.24 m/s, 34° | 593 W/m² | - |
| 1787825116 | 23.89° C | 47% | 1020.2 hPa | 0 mm | 0.45 m/s, 83° | 592 W/m² | - |
| 1787825055 | 23.89° C | 46% | 1020 hPa | 0 mm | 1.79 m/s, 62° | 591 W/m² | - |
| 1787824996 | 23.89° C | 46% | 1019.9 hPa | 0 mm | 2.68 m/s, 35° | 592 W/m² | - |
| 1787824935 | 23.89° C | 46% | 1020 hPa | 0 mm | 0.45 m/s, 8° | 591 W/m² | - |
| 1787824876 | 23.89° C | 46% | 1020.2 hPa | 0 mm | 0.89 m/s, 131° | 588 W/m² | - |
| 1787824816 | 23.89° C | 46% | 1019.9 hPa | 0 mm | 0.45 m/s, 74° | 587 W/m² | - |
| 1787824755 | 23.89° C | 46% | 1019.9 hPa | 0 mm | 1.34 m/s, 214° | 586 W/m² | - |
| 1787824696 | 23.89° C | 46% | 1020.2 hPa | 0 mm | 1.34 m/s, 59° | 585 W/m² | - |
| 1787824636 | 23.89° C | 46% | 1020.1 hPa | 0 mm | 2.68 m/s, 53° | 584 W/m² | - |
* Rain latest hour (hover to see other rain measurements)
** Current wind speed in m/s (hover to see current wind gust speed)